createdAt,value
2019-04-20T00:00:41.682Z,0.16
2019-04-20T00:03:08.026Z,0.09
2019-04-20T00:05:37.311Z,0.04
2019-04-20T00:08:15.013Z,0.04
2019-04-20T00:10:47.549Z,0.09
2019-04-20T00:13:21.698Z,0.15
2019-04-20T00:15:40.933Z,0.25
2019-04-20T00:18:13.147Z,0.32
2019-04-20T00:20:51.365Z,0.36
2019-04-20T00:23:33.432Z,0.35
2019-04-20T00:26:24.898Z,0.33
2019-04-20T00:29:07.142Z,0.31
2019-04-20T00:31:30.682Z,0.26
2019-04-20T00:33:59.432Z,0.24
2019-04-20T00:36:20.549Z,0.19
2019-04-20T00:38:56.351Z,0.15
2019-04-20T00:41:22.984Z,0.10
2019-04-20T00:43:53.386Z,0.08
2019-04-20T00:46:30.439Z,0.06
2019-04-20T00:49:01.580Z,0.02
2019-04-20T00:51:39.461Z,-0.01
2019-04-20T00:53:58.756Z,0.02
2019-04-20T00:56:27.172Z,-0.01
2019-04-20T00:59:09.238Z,-0.02
2019-04-20T01:01:50.380Z,-0.03
2019-04-20T01:07:17.672Z,-0.01
2019-04-20T01:10:02.780Z,0.01
2019-04-20T01:12:34.945Z,0.03
2019-04-20T01:15:06.338Z,0.02
2019-04-20T01:17:37.974Z,0.01
2019-04-20T01:20:06.292Z,0.06
2019-04-20T01:22:44.376Z,0.06
2019-04-20T01:25:14.168Z,0.01
2019-04-20T01:27:50.155Z,0.02
2019-04-20T01:30:17.434Z,-0.03
2019-04-20T01:32:55.174Z,-0.04
2019-04-20T01:35:32.617Z,-0.08
2019-04-20T01:38:00.181Z,-0.07
2019-04-20T01:40:14.902Z,-0.06
2019-04-20T01:42:44.630Z,-0.09
2019-04-20T01:45:21.403Z,-0.12
2019-04-20T01:47:49.407Z,-0.15
2019-04-20T01:50:23.914Z,-0.17
2019-04-20T01:52:58.174Z,-0.19
2019-04-20T01:55:42.501Z,-0.22
2019-04-20T01:58:36.386Z,-0.23
2019-04-20T02:01:19.192Z,-0.29
2019-04-20T02:04:03.240Z,-0.36
2019-04-20T02:06:39.962Z,-0.42
2019-04-20T02:09:10.142Z,-0.47
2019-04-20T02:11:40.141Z,-0.57
2019-04-20T02:14:09.124Z,-0.63
2019-04-20T02:16:43.994Z,-0.67
2019-04-20T02:19:25.449Z,-0.68
2019-04-20T02:21:55.436Z,-0.72
2019-04-20T02:24:12.560Z,-0.72
2019-04-20T02:26:42.940Z,-0.72
2019-04-20T02:29:36.063Z,-0.71
2019-04-20T02:35:07.712Z,-0.75
2019-04-20T02:38:02.874Z,-0.78
2019-04-20T02:48:00.905Z,-0.89
2019-04-20T02:50:44.314Z,-0.90
2019-04-20T02:55:31.276Z,-0.96
2019-04-20T02:58:01.907Z,-0.96
2019-04-20T03:00:29.898Z,-0.94
2019-04-20T03:02:50.986Z,-0.96
2019-04-20T03:05:20.680Z,-0.95
2019-04-20T03:08:01.167Z,-0.99
2019-04-20T03:10:44.556Z,-1.02
2019-04-20T03:13:05.341Z,-1.08
2019-04-20T03:15:34.916Z,-1.10
2019-04-20T03:18:11.764Z,-1.10
2019-04-20T03:20:36.856Z,-1.12
2019-04-20T03:25:55.441Z,-1.16
2019-04-20T03:28:26.247Z,-1.20
2019-04-20T03:33:53.722Z,-1.26
2019-04-20T03:36:12.492Z,-1.28
2019-04-20T03:38:38.391Z,-1.31
2019-04-20T03:40:59.270Z,-1.34
2019-04-20T03:43:18.132Z,-1.34
2019-04-20T03:45:56.190Z,-1.33
2019-04-20T03:48:35.985Z,-1.36
2019-04-20T03:51:07.299Z,-1.32
2019-04-20T03:53:39.745Z,-1.32
2019-04-20T03:56:35.162Z,-1.32
2019-04-20T03:59:01.769Z,-1.32
2019-04-20T04:02:26.427Z,-1.29
2019-04-20T04:05:01.795Z,-1.29
2019-04-20T04:07:19.561Z,-1.33
2019-04-20T04:09:58.632Z,-1.37
2019-04-20T04:12:49.719Z,-1.38
2019-04-20T04:15:18.985Z,-1.34
2019-04-20T04:17:49.840Z,-1.23
2019-04-20T04:20:21.397Z,-1.13
2019-04-20T04:23:10.334Z,-1.06
2019-04-20T04:25:33.566Z,-0.93
2019-04-20T04:28:09.364Z,-0.76
2019-04-20T04:30:39.278Z,-0.60
2019-04-20T04:35:38.698Z,-0.31
2019-04-20T04:38:23.574Z,-0.14
2019-04-20T04:40:58.710Z,0.07
2019-04-20T04:43:22.218Z,0.65
2019-04-20T04:45:31.878Z,1.53
2019-04-20T04:48:02.018Z,2.53
2019-04-20T04:50:32.957Z,3.58
2019-04-20T04:53:09.067Z,4.29
2019-04-20T04:55:43.884Z,4.88
2019-04-20T04:58:04.756Z,5.54
2019-04-20T05:00:35.874Z,6.28
2019-04-20T05:03:28.231Z,7.21
2019-04-20T05:06:08.840Z,7.93
2019-04-20T05:08:27.346Z,9.26
2019-04-20T05:10:52.029Z,10.33
2019-04-20T05:13:21.977Z,11.33
2019-04-20T05:16:03.488Z,12.08
2019-04-20T05:18:44.978Z,12.51
2019-04-20T05:21:21.685Z,13.12
2019-04-20T05:23:47.829Z,13.25
2019-04-20T05:26:55.628Z,13.09
2019-04-20T05:29:08.445Z,13.72
2019-04-20T05:31:41.481Z,14.46
2019-04-20T05:34:25.607Z,14.99
2019-04-20T05:36:55.673Z,15.34
2019-04-20T05:39:32.959Z,15.80
2019-04-20T05:41:56.797Z,16.61
2019-04-20T05:44:31.929Z,16.60
2019-04-20T05:47:05.512Z,16.84
2019-04-20T05:49:34.532Z,17.58
2019-04-20T05:52:24.127Z,17.98
2019-04-20T05:54:51.121Z,17.56
2019-04-20T05:57:19.554Z,17.70
2019-04-20T05:59:51.372Z,18.35
2019-04-20T06:02:16.941Z,18.22
2019-04-20T06:07:23.943Z,18.44
2019-04-20T06:09:46.241Z,18.53
2019-04-20T06:12:19.836Z,18.83
2019-04-20T06:15:14.514Z,19.44
2019-04-20T06:18:13.583Z,20.02
2019-04-20T06:20:47.804Z,20.73
2019-04-20T06:23:42.756Z,20.75
2019-04-20T06:26:20.681Z,20.64
2019-04-20T06:28:30.077Z,21.55
2019-04-20T06:31:11.332Z,21.98
2019-04-20T06:34:27.147Z,22.09
2019-04-20T06:37:06.870Z,23.12
2019-04-20T06:39:20.277Z,22.62
2019-04-20T06:42:06.802Z,22.72
2019-04-20T06:44:24.191Z,23.52
2019-04-20T06:46:59.015Z,23.69
2019-04-20T06:52:23.365Z,24.78
2019-04-20T06:54:57.806Z,24.83
2019-04-20T06:57:35.719Z,24.85
2019-04-20T07:00:07.185Z,25.33
2019-04-20T07:02:43.111Z,25.18
2019-04-20T07:05:13.012Z,25.22
2019-04-20T07:07:43.216Z,25.23
2019-04-20T07:10:19.372Z,25.49
2019-04-20T07:12:36.958Z,25.52
2019-04-20T07:15:08.553Z,26.31
2019-04-20T07:18:04.920Z,26.85
2019-04-20T07:20:55.632Z,27.02
2019-04-20T07:23:26.953Z,26.42
2019-04-20T07:25:54.302Z,26.41
2019-04-20T07:28:26.004Z,26.45
2019-04-20T07:30:55.359Z,26.27
2019-04-20T07:33:26.952Z,24.78
2019-04-20T07:35:55.983Z,25.58
2019-04-20T07:38:34.523Z,26.41
2019-04-20T07:40:59.988Z,26.86
2019-04-20T07:43:29.952Z,28.07
2019-04-20T07:46:04.192Z,28.02
2019-04-20T07:48:29.569Z,27.85
2019-04-20T07:50:55.590Z,27.98
2019-04-20T07:53:29.408Z,27.93
2019-04-20T07:56:09.185Z,28.77
2019-04-20T07:58:28.554Z,27.27
2019-04-20T08:01:24.248Z,27.30
2019-04-20T08:03:55.692Z,27.17
2019-04-20T08:06:29.844Z,28.40
2019-04-20T08:09:08.725Z,28.37
2019-04-20T08:11:50.437Z,29.60
2019-04-20T08:14:22.448Z,28.71
2019-04-20T08:17:05.377Z,29.75
2019-04-20T08:19:17.453Z,30.79
2019-04-20T08:22:08.024Z,30.61
2019-04-20T08:24:17.016Z,30.29
2019-04-20T08:26:41.583Z,29.60
2019-04-20T08:29:38.170Z,28.05
2019-04-20T08:32:28.305Z,28.15
2019-04-20T08:35:05.246Z,28.76
2019-04-20T08:37:38.032Z,29.69
2019-04-20T08:40:13.265Z,30.14
2019-04-20T08:42:51.178Z,31.25
2019-04-20T08:45:18.086Z,30.83
2019-04-20T08:47:51.421Z,30.34
2019-04-20T08:50:19.896Z,28.84
2019-04-20T08:55:21.305Z,30.47
2019-04-20T08:57:31.449Z,30.16
2019-04-20T09:00:03.596Z,29.46
2019-04-20T09:02:32.692Z,28.03
2019-04-20T09:05:09.058Z,28.52
2019-04-20T09:07:45.275Z,29.38
2019-04-20T09:10:28.222Z,31.38
2019-04-20T09:12:54.699Z,31.63
2019-04-20T09:15:10.165Z,30.77
2019-04-20T09:17:55.996Z,30.85
2019-04-20T09:20:34.367Z,31.87
2019-04-20T09:23:28.665Z,32.37
2019-04-20T09:26:16.240Z,32.31
2019-04-20T09:28:28.616Z,32.91
2019-04-20T09:31:12.221Z,33.61
2019-04-20T09:34:08.339Z,33.64
2019-04-20T09:36:42.321Z,32.06
2019-04-20T09:39:31.599Z,32.58
2019-04-20T09:42:01.473Z,30.52
2019-04-20T09:44:37.559Z,29.86
2019-04-20T09:47:04.673Z,28.96
2019-04-20T09:49:42.467Z,29.34
2019-04-20T09:52:17.315Z,28.76
2019-04-20T09:54:52.505Z,28.85
2019-04-20T09:57:25.518Z,28.61
2019-04-20T09:59:58.727Z,27.82
2019-04-20T10:02:17.002Z,28.81
2019-04-20T10:04:39.842Z,28.59
2019-04-20T10:07:14.231Z,28.53
2019-04-20T10:09:44.585Z,28.41
2019-04-20T10:12:11.428Z,29.48
2019-04-20T10:14:40.846Z,27.31
2019-04-20T10:17:10.175Z,27.12
2019-04-20T10:19:41.340Z,26.10
2019-04-20T10:22:10.985Z,24.91
2019-04-20T10:24:40.302Z,24.74
2019-04-20T10:27:10.507Z,24.96
2019-04-20T10:29:39.846Z,25.57
2019-04-20T10:32:12.515Z,25.90
2019-04-20T10:34:40.941Z,25.78
2019-04-20T10:37:19.779Z,26.69
2019-04-20T10:39:49.354Z,25.63
2019-04-20T10:42:18.663Z,25.87
2019-04-20T10:44:48.244Z,25.45
2019-04-20T10:47:18.959Z,25.76
2019-04-20T10:49:49.294Z,25.99
2019-04-20T10:52:19.894Z,26.16
2019-04-20T10:54:50.369Z,25.58
2019-04-20T10:57:19.757Z,24.87
2019-04-20T10:59:49.846Z,25.41
2019-04-20T11:02:19.490Z,26.31
2019-04-20T11:04:48.909Z,25.87
2019-04-20T11:07:18.743Z,25.98
2019-04-20T11:10:00.652Z,25.57
2019-04-20T11:12:20.086Z,24.88
2019-04-20T11:14:50.242Z,25.05
2019-04-20T11:17:20.454Z,25.19
2019-04-20T11:19:49.780Z,24.40
2019-04-20T11:22:20.048Z,23.79
2019-04-20T11:24:50.227Z,21.73
2019-04-20T11:27:20.440Z,20.40
2019-04-20T11:29:49.892Z,19.68
2019-04-20T11:32:20.209Z,18.87
2019-04-20T11:34:49.566Z,18.32
2019-04-20T11:37:19.363Z,18.40
2019-04-20T11:39:48.739Z,18.10
2019-04-20T11:42:19.226Z,18.08
2019-04-20T11:44:48.929Z,17.70
2019-04-20T11:47:18.874Z,17.74
2019-04-20T11:49:49.370Z,17.60
2019-04-20T11:52:21.412Z,17.65
2019-04-20T11:54:50.485Z,17.65
2019-04-20T11:57:19.868Z,17.76
2019-04-20T11:59:49.099Z,17.69
2019-04-20T12:02:33.064Z,17.40
2019-04-20T12:05:16.689Z,17.25
2019-04-20T12:07:40.582Z,17.25
2019-04-20T12:10:17.000Z,17.12
2019-04-20T12:12:46.726Z,16.84
2019-04-20T12:15:13.078Z,16.81
2019-04-20T12:17:43.950Z,16.77
2019-04-20T12:20:14.592Z,16.57
2019-04-20T12:22:44.301Z,16.55
2019-04-20T12:25:14.705Z,16.43
2019-04-20T12:27:50.758Z,16.46
2019-04-20T12:30:15.588Z,16.54
2019-04-20T12:32:51.515Z,16.73
2019-04-20T12:35:16.647Z,16.74
2019-04-20T12:37:47.351Z,16.54
2019-04-20T12:40:19.874Z,16.11
2019-04-20T12:42:49.237Z,15.71
2019-04-20T12:45:19.704Z,15.53
2019-04-20T12:47:51.372Z,15.54
2019-04-20T12:50:21.493Z,15.55
2019-04-20T12:52:52.296Z,15.51
2019-04-20T12:55:22.877Z,15.55
2019-04-20T12:57:52.546Z,15.56
2019-04-20T13:00:23.587Z,15.55
2019-04-20T13:02:53.691Z,15.36
2019-04-20T13:05:23.272Z,15.27
2019-04-20T13:07:56.421Z,15.21
2019-04-20T13:10:25.350Z,15.28
2019-04-20T13:13:26.245Z,15.23
2019-04-20T13:16:14.513Z,15.32
2019-04-20T13:18:53.090Z,15.21
2019-04-20T13:21:22.980Z,15.17
2019-04-20T13:23:53.179Z,15.24
2019-04-20T13:26:22.713Z,15.12
2019-04-20T13:28:52.922Z,15.33
2019-04-20T13:31:22.189Z,15.54
2019-04-20T13:33:51.757Z,15.75
2019-04-20T13:36:22.045Z,15.96
2019-04-20T13:38:52.244Z,16.31
2019-04-20T13:41:22.101Z,16.48
2019-04-20T13:43:54.183Z,16.62
2019-04-20T13:46:22.970Z,16.69
2019-04-20T13:48:53.199Z,16.92
2019-04-20T13:51:23.019Z,17.14
2019-04-20T13:53:53.291Z,17.16
2019-04-20T13:56:23.915Z,17.15
2019-04-20T13:59:14.880Z,17.25
2019-04-20T14:01:57.092Z,17.44
2019-04-20T14:04:32.904Z,17.75
2019-04-20T14:07:03.640Z,17.75
2019-04-20T14:09:33.294Z,17.97
2019-04-20T14:12:14.188Z,18.06
2019-04-20T14:14:34.978Z,18.13
2019-04-20T14:17:05.394Z,18.24
2019-04-20T14:19:34.898Z,18.17
2019-04-20T14:22:04.418Z,18.17
2019-04-20T14:24:34.978Z,18.26
2019-04-20T14:27:04.334Z,18.39
2019-04-20T14:29:34.800Z,18.47
2019-04-20T14:32:05.956Z,18.48
2019-04-20T14:34:35.409Z,18.63
2019-04-20T14:37:04.838Z,18.66
2019-04-20T14:39:34.290Z,18.76
2019-04-20T14:42:04.580Z,18.94
2019-04-20T14:44:34.070Z,18.99
2019-04-20T14:47:03.683Z,18.95
2019-04-20T14:49:33.025Z,18.93
2019-04-20T14:52:03.125Z,18.90
2019-04-20T14:54:33.388Z,18.91
2019-04-20T14:57:03.408Z,18.97
2019-04-20T14:59:39.019Z,19.09
2019-04-20T15:02:13.557Z,19.17
2019-04-20T15:04:43.377Z,19.16
2019-04-20T15:07:13.023Z,19.18
2019-04-20T15:09:42.952Z,19.22
2019-04-20T15:12:12.929Z,19.29
2019-04-20T15:14:42.723Z,19.34
2019-04-20T15:17:15.535Z,19.28
2019-04-20T15:19:49.699Z,19.30
2019-04-20T15:22:36.771Z,19.30
2019-04-20T15:25:07.632Z,19.26
2019-04-20T15:27:37.403Z,19.23
2019-04-20T15:30:08.617Z,19.19
2019-04-20T15:32:38.988Z,19.16
2019-04-20T15:35:09.190Z,19.11
2019-04-20T15:37:39.499Z,19.08
2019-04-20T15:40:10.863Z,19.02
2019-04-20T15:42:53.776Z,18.96
2019-04-20T15:45:11.666Z,18.87
2019-04-20T15:47:41.246Z,18.83
2019-04-20T15:50:11.833Z,18.81
2019-04-20T15:52:45.631Z,18.72
2019-04-20T15:55:21.648Z,18.66
2019-04-20T15:57:44.748Z,18.71
2019-04-20T16:00:16.182Z,18.72
2019-04-20T16:02:53.654Z,18.61
2019-04-20T16:06:01.222Z,18.53
2019-04-20T16:08:32.651Z,18.56
2019-04-20T16:11:04.534Z,18.46
2019-04-20T16:13:37.920Z,18.45
2019-04-20T16:16:05.849Z,18.52
2019-04-20T16:18:35.259Z,18.55
2019-04-20T16:21:10.121Z,18.52
2019-04-20T16:23:50.708Z,18.54
2019-04-20T16:26:49.474Z,18.54
2019-04-20T16:29:19.834Z,18.48
2019-04-20T16:31:50.757Z,18.37
2019-04-20T16:34:21.402Z,18.27
2019-04-20T16:36:54.325Z,18.28
2019-04-20T16:39:22.622Z,18.19
2019-04-20T16:41:52.041Z,18.17
2019-04-20T16:44:21.402Z,18.15
2019-04-20T16:46:52.072Z,18.06
2019-04-20T16:49:21.437Z,18.05
2019-04-20T16:51:52.555Z,18.04
2019-04-20T16:54:23.451Z,18.06
2019-04-20T16:56:53.134Z,18.11
2019-04-20T16:59:22.591Z,18.15
2019-04-20T17:01:51.894Z,18.05
2019-04-20T17:04:23.009Z,18.03
2019-04-20T17:07:12.464Z,17.80
2019-04-20T17:09:42.157Z,17.80
2019-04-20T17:12:12.079Z,17.72
2019-04-20T17:14:41.526Z,17.72
2019-04-20T17:17:11.573Z,17.72
2019-04-20T17:19:41.728Z,17.63
2019-04-20T17:22:11.697Z,17.45
2019-04-20T17:24:41.046Z,17.19
2019-04-20T17:27:39.075Z,17.19
2019-04-20T17:30:27.263Z,17.17
2019-04-20T17:33:00.505Z,17.14
2019-04-20T17:35:43.620Z,16.95
2019-04-20T17:38:02.866Z,16.78
2019-04-20T17:40:52.632Z,16.61
2019-04-20T17:43:12.717Z,16.62
2019-04-20T17:45:43.221Z,16.58
2019-04-20T17:48:21.579Z,16.36
2019-04-20T17:51:03.003Z,16.11
2019-04-20T17:53:37.187Z,15.90
2019-04-20T17:56:01.644Z,15.71
2019-04-20T17:58:32.945Z,15.55
2019-04-20T18:01:34.797Z,15.43
2019-04-20T18:04:27.381Z,15.21
2019-04-20T18:06:45.270Z,14.88
2019-04-20T18:09:13.282Z,14.58
2019-04-20T18:11:40.343Z,14.38
2019-04-20T18:14:24.229Z,14.19
2019-04-20T18:16:56.304Z,14.00
2019-04-20T18:19:25.709Z,13.88
2019-04-20T18:21:58.248Z,13.79
2019-04-20T18:24:51.019Z,13.80
2019-04-20T18:27:24.315Z,14.02
2019-04-20T18:29:45.628Z,13.95
2019-04-20T18:32:20.107Z,13.98
2019-04-20T18:35:06.260Z,13.83
2019-04-20T18:37:34.386Z,13.70
2019-04-20T18:40:10.748Z,13.53
2019-04-20T18:42:40.489Z,13.36
2019-04-20T18:45:28.068Z,13.17
2019-04-20T18:47:53.958Z,12.96
2019-04-20T18:50:18.605Z,12.73
2019-04-20T18:52:42.153Z,12.47
2019-04-20T18:55:16.093Z,12.27
2019-04-20T18:57:44.451Z,12.03
2019-04-20T19:00:22.508Z,11.79
2019-04-20T19:02:52.055Z,11.56
2019-04-20T19:05:19.802Z,11.34
2019-04-20T19:07:57.875Z,11.19
2019-04-20T19:10:27.549Z,11.01
2019-04-20T19:12:59.876Z,10.84
2019-04-20T19:16:00.496Z,10.74
2019-04-20T19:18:50.458Z,10.81
2019-04-20T19:21:05.108Z,11.00
2019-04-20T19:23:36.670Z,11.18
2019-04-20T19:26:11.925Z,11.23
2019-04-20T19:28:43.007Z,11.27
2019-04-20T19:31:21.553Z,11.28
2019-04-20T19:34:00.835Z,11.30
2019-04-20T19:36:20.051Z,11.12
2019-04-20T19:38:56.302Z,10.91
2019-04-20T19:41:25.391Z,10.71
2019-04-20T19:43:55.017Z,10.58
2019-04-20T19:46:48.254Z,10.51
2019-04-20T19:48:55.936Z,10.38
2019-04-20T19:51:43.505Z,10.26
2019-04-20T19:54:16.604Z,10.13
2019-04-20T19:56:37.376Z,10.00
2019-04-20T19:59:02.953Z,9.90
2019-04-20T20:01:22.236Z,9.79
2019-04-20T20:03:56.356Z,9.68
2019-04-20T20:06:30.523Z,9.60
2019-04-20T20:08:57.958Z,9.53
2019-04-20T20:11:30.455Z,9.43
2019-04-20T20:13:58.478Z,9.31
2019-04-20T20:16:43.608Z,9.19
2019-04-20T20:19:05.992Z,9.05
2019-04-20T20:21:45.143Z,8.92
2019-04-20T20:24:01.999Z,8.82
2019-04-20T20:26:37.002Z,8.84
2019-04-20T20:29:11.928Z,8.77
2019-04-20T20:31:51.050Z,8.67
2019-04-20T20:34:12.892Z,8.64
2019-04-20T20:36:43.533Z,8.74
2019-04-20T20:39:15.614Z,8.79
2019-04-20T20:41:54.370Z,8.81
2019-04-20T20:44:25.976Z,8.99
2019-04-20T20:46:55.053Z,9.17
2019-04-20T20:49:33.101Z,9.35
2019-04-20T20:52:09.732Z,9.58
2019-04-20T20:54:30.408Z,9.67
2019-04-20T20:56:55.583Z,9.67
2019-04-20T20:59:30.395Z,9.74
2019-04-20T21:01:54.062Z,9.77
2019-04-20T21:04:19.597Z,9.80
2019-04-20T21:06:48.947Z,9.83
2019-04-20T21:09:18.622Z,9.83
2019-04-20T21:11:52.026Z,9.81
2019-04-20T21:14:21.981Z,9.84
2019-04-20T21:17:00.332Z,9.78
2019-04-20T21:19:41.776Z,9.75
2019-04-20T21:22:00.027Z,9.79
2019-04-20T21:24:35.904Z,9.81
2019-04-20T21:27:07.750Z,9.73
2019-04-20T21:29:43.507Z,9.57
2019-04-20T21:32:12.514Z,9.37
2019-04-20T21:34:44.486Z,9.19
2019-04-20T21:37:13.576Z,8.99
2019-04-20T21:39:49.292Z,8.97
2019-04-20T21:42:15.835Z,8.94
2019-04-20T21:44:46.152Z,9.00
2019-04-20T21:47:15.677Z,8.89
2019-04-20T21:49:55.739Z,8.81
2019-04-20T21:52:24.917Z,8.67
2019-04-20T21:54:47.887Z,8.62
2019-04-20T21:57:18.116Z,8.61
2019-04-20T21:59:50.862Z,8.71
2019-04-20T22:02:25.393Z,8.63
2019-04-20T22:04:51.181Z,8.55
2019-04-20T22:07:20.820Z,8.40
2019-04-20T22:09:53.301Z,8.18
2019-04-20T22:12:21.118Z,8.03
2019-04-20T22:15:00.100Z,7.95
2019-04-20T22:17:27.575Z,7.87
2019-04-20T22:20:06.040Z,7.74
2019-04-20T22:22:44.187Z,7.68
2019-04-20T22:25:06.283Z,7.77
2019-04-20T22:27:30.022Z,7.71
2019-04-20T22:29:57.559Z,7.75
2019-04-20T22:32:28.136Z,7.66
2019-04-20T22:35:03.134Z,7.55
2019-04-20T22:37:36.584Z,7.58
2019-04-20T22:40:06.958Z,7.79
2019-04-20T22:42:40.115Z,7.82
2019-04-20T22:45:11.849Z,7.82
2019-04-20T22:47:39.449Z,7.78
2019-04-20T22:50:31.600Z,7.71
2019-04-20T22:52:52.461Z,7.67
2019-04-20T22:55:36.637Z,7.66
2019-04-20T22:57:54.032Z,7.56
2019-04-20T23:00:29.336Z,7.47
2019-04-20T23:02:47.345Z,7.45
2019-04-20T23:05:16.583Z,7.39
2019-04-20T23:07:46.622Z,7.37
2019-04-20T23:10:18.235Z,7.30
2019-04-20T23:12:52.407Z,7.22
2019-04-20T23:15:18.608Z,7.22
2019-04-20T23:17:50.442Z,7.31
2019-04-20T23:20:25.245Z,7.26
2019-04-20T23:22:51.339Z,7.22
2019-04-20T23:25:21.150Z,7.15
2019-04-20T23:27:57.991Z,7.12
2019-04-20T23:30:26.117Z,6.95
2019-04-20T23:32:53.914Z,6.77
2019-04-20T23:35:25.252Z,6.57
2019-04-20T23:38:01.229Z,6.35
2019-04-20T23:40:25.779Z,6.15
2019-04-20T23:43:15.332Z,6.04
2019-04-20T23:45:52.990Z,5.92
2019-04-20T23:48:30.596Z,5.77
2019-04-20T23:51:09.920Z,5.63
2019-04-20T23:53:43.794Z,5.54
2019-04-20T23:56:01.670Z,5.44
2019-04-20T23:58:39.919Z,5.39
